sensor_id;sensor_type;location;lat;lon;timestamp;P1;durP1;ratioP1;P2;durP2;ratioP2
11921;SDS011;6021;51.182;3.160;2023-02-22T00:02:02;43.43;;;25.87;;
11921;SDS011;6021;51.182;3.160;2023-02-22T00:04:36;66.83;;;27.57;;
11921;SDS011;6021;51.182;3.160;2023-02-22T00:07:08;68.17;;;26.87;;
11921;SDS011;6021;51.182;3.160;2023-02-22T00:09:36;46.70;;;25.43;;
11921;SDS011;6021;51.182;3.160;2023-02-22T00:12:04;55.73;;;26.40;;
11921;SDS011;6021;51.182;3.160;2023-02-22T00:14:35;68.90;;;27.57;;
11921;SDS011;6021;51.182;3.160;2023-02-22T00:17:03;71.73;;;28.97;;
11921;SDS011;6021;51.182;3.160;2023-02-22T00:19:32;67.87;;;29.37;;
11921;SDS011;6021;51.182;3.160;2023-02-22T00:22:00;52.40;;;28.63;;
11921;SDS011;6021;51.182;3.160;2023-02-22T00:24:30;107.53;;;30.73;;
11921;SDS011;6021;51.182;3.160;2023-02-22T00:26:59;49.77;;;26.87;;
11921;SDS011;6021;51.182;3.160;2023-02-22T00:29:29;43.70;;;26.13;;
11921;SDS011;6021;51.182;3.160;2023-02-22T00:31:59;64.90;;;28.27;;
11921;SDS011;6021;51.182;3.160;2023-02-22T00:34:27;75.50;;;27.50;;
11921;SDS011;6021;51.182;3.160;2023-02-22T00:36:55;100.67;;;27.77;;
11921;SDS011;6021;51.182;3.160;2023-02-22T00:39:23;85.40;;;28.77;;
11921;SDS011;6021;51.182;3.160;2023-02-22T00:41:52;58.00;;;26.17;;
11921;SDS011;6021;51.182;3.160;2023-02-22T00:44:20;98.37;;;29.10;;
11921;SDS011;6021;51.182;3.160;2023-02-22T00:46:49;92.27;;;29.47;;
11921;SDS011;6021;51.182;3.160;2023-02-22T00:49:18;93.30;;;28.10;;
11921;SDS011;6021;51.182;3.160;2023-02-22T00:51:46;106.77;;;29.03;;
11921;SDS011;6021;51.182;3.160;2023-02-22T00:54:15;74.67;;;27.43;;
11921;SDS011;6021;51.182;3.160;2023-02-22T00:56:45;131.10;;;29.47;;
11921;SDS011;6021;51.182;3.160;2023-02-22T00:59:15;143.80;;;29.27;;
11921;SDS011;6021;51.182;3.160;2023-02-22T01:01:46;181.07;;;30.57;;
11921;SDS011;6021;51.182;3.160;2023-02-22T01:04:15;212.47;;;31.13;;
11921;SDS011;6021;51.182;3.160;2023-02-22T01:06:43;180.67;;;32.60;;
11921;SDS011;6021;51.182;3.160;2023-02-22T01:09:12;139.10;;;32.97;;
11921;SDS011;6021;51.182;3.160;2023-02-22T01:11:40;94.17;;;29.63;;
11921;SDS011;6021;51.182;3.160;2023-02-22T01:14:09;426.20;;;38.47;;
11921;SDS011;6021;51.182;3.160;2023-02-22T01:16:37;318.67;;;37.53;;
11921;SDS011;6021;51.182;3.160;2023-02-22T01:19:06;66.93;;;29.73;;
11921;SDS011;6021;51.182;3.160;2023-02-22T01:21:34;57.37;;;29.30;;
11921;SDS011;6021;51.182;3.160;2023-02-22T01:24:02;163.33;;;34.80;;
11921;SDS011;6021;51.182;3.160;2023-02-22T01:26:31;363.77;;;42.17;;
11921;SDS011;6021;51.182;3.160;2023-02-22T01:28:59;324.27;;;39.80;;
11921;SDS011;6021;51.182;3.160;2023-02-22T01:31:28;450.80;;;43.00;;
11921;SDS011;6021;51.182;3.160;2023-02-22T01:33:56;325.67;;;39.77;;
11921;SDS011;6021;51.182;3.160;2023-02-22T01:36:24;342.07;;;39.83;;
11921;SDS011;6021;51.182;3.160;2023-02-22T01:38:53;364.83;;;42.57;;
11921;SDS011;6021;51.182;3.160;2023-02-22T01:41:21;197.60;;;38.33;;
11921;SDS011;6021;51.182;3.160;2023-02-22T01:43:49;185.47;;;38.50;;
11921;SDS011;6021;51.182;3.160;2023-02-22T01:46:25;238.17;;;37.40;;
11921;SDS011;6021;51.182;3.160;2023-02-22T01:48:56;166.73;;;36.70;;
11921;SDS011;6021;51.182;3.160;2023-02-22T01:51:32;279.13;;;38.77;;
11921;SDS011;6021;51.182;3.160;2023-02-22T01:54:08;221.63;;;39.43;;
11921;SDS011;6021;51.182;3.160;2023-02-22T01:56:35;117.80;;;34.87;;
11921;SDS011;6021;51.182;3.160;2023-02-22T01:59:07;80.73;;;32.23;;
11921;SDS011;6021;51.182;3.160;2023-02-22T02:01:37;158.23;;;36.17;;
11921;SDS011;6021;51.182;3.160;2023-02-22T02:04:13;207.47;;;38.83;;
11921;SDS011;6021;51.182;3.160;2023-02-22T02:06:42;163.87;;;36.50;;
11921;SDS011;6021;51.182;3.160;2023-02-22T02:12:02;120.97;;;33.57;;
11921;SDS011;6021;51.182;3.160;2023-02-22T02:14:32;115.83;;;33.73;;
11921;SDS011;6021;51.182;3.160;2023-02-22T02:17:02;107.13;;;36.27;;
11921;SDS011;6021;51.182;3.160;2023-02-22T02:19:52;107.33;;;34.60;;
11921;SDS011;6021;51.182;3.160;2023-02-22T02:25:18;97.80;;;34.00;;
11921;SDS011;6021;51.182;3.160;2023-02-22T02:30:42;157.17;;;35.87;;
11921;SDS011;6021;51.182;3.160;2023-02-22T02:33:24;78.90;;;30.87;;
11921;SDS011;6021;51.182;3.160;2023-02-22T02:35:54;70.17;;;31.50;;
11921;SDS011;6021;51.182;3.160;2023-02-22T02:41:15;63.87;;;31.27;;
11921;SDS011;6021;51.182;3.160;2023-02-22T02:48:56;107.17;;;35.50;;
11921;SDS011;6021;51.182;3.160;2023-02-22T02:51:28;79.43;;;34.03;;
11921;SDS011;6021;51.182;3.160;2023-02-22T02:53:58;81.10;;;34.40;;
11921;SDS011;6021;51.182;3.160;2023-02-22T02:56:28;204.13;;;40.50;;
11921;SDS011;6021;51.182;3.160;2023-02-22T02:58:57;109.33;;;36.60;;
11921;SDS011;6021;51.182;3.160;2023-02-22T03:01:42;96.67;;;34.40;;
11921;SDS011;6021;51.182;3.160;2023-02-22T03:04:18;57.00;;;30.60;;
11921;SDS011;6021;51.182;3.160;2023-02-22T03:06:51;100.73;;;34.07;;
11921;SDS011;6021;51.182;3.160;2023-02-22T03:12:26;76.17;;;32.53;;
11921;SDS011;6021;51.182;3.160;2023-02-22T03:18:02;58.23;;;32.80;;
11921;SDS011;6021;51.182;3.160;2023-02-22T03:23:22;49.40;;;28.93;;
11921;SDS011;6021;51.182;3.160;2023-02-22T03:26:01;55.43;;;31.10;;
11921;SDS011;6021;51.182;3.160;2023-02-22T03:28:26;70.17;;;34.03;;
11921;SDS011;6021;51.182;3.160;2023-02-22T03:30:57;71.70;;;34.40;;
11921;SDS011;6021;51.182;3.160;2023-02-22T03:33:38;57.00;;;33.43;;
11921;SDS011;6021;51.182;3.160;2023-02-22T03:36:16;58.67;;;33.77;;
11921;SDS011;6021;51.182;3.160;2023-02-22T03:38:41;68.77;;;36.30;;
11921;SDS011;6021;51.182;3.160;2023-02-22T03:41:11;62.83;;;34.57;;
11921;SDS011;6021;51.182;3.160;2023-02-22T03:43:44;70.43;;;36.93;;
11921;SDS011;6021;51.182;3.160;2023-02-22T03:46:14;70.47;;;36.30;;
11921;SDS011;6021;51.182;3.160;2023-02-22T03:48:45;74.87;;;37.47;;
11921;SDS011;6021;51.182;3.160;2023-02-22T03:51:19;65.37;;;35.13;;
11921;SDS011;6021;51.182;3.160;2023-02-22T03:53:48;86.13;;;40.07;;
11921;SDS011;6021;51.182;3.160;2023-02-22T03:56:19;62.10;;;35.00;;
11921;SDS011;6021;51.182;3.160;2023-02-22T03:58:49;55.83;;;29.30;;
11921;SDS011;6021;51.182;3.160;2023-02-22T04:01:18;66.20;;;34.43;;
11921;SDS011;6021;51.182;3.160;2023-02-22T04:03:48;75.93;;;36.27;;
11921;SDS011;6021;51.182;3.160;2023-02-22T04:06:16;56.03;;;31.90;;
11921;SDS011;6021;51.182;3.160;2023-02-22T04:08:45;72.97;;;37.80;;
11921;SDS011;6021;51.182;3.160;2023-02-22T04:11:13;70.80;;;35.87;;
11921;SDS011;6021;51.182;3.160;2023-02-22T04:13:42;65.67;;;34.80;;
11921;SDS011;6021;51.182;3.160;2023-02-22T04:16:10;59.03;;;33.50;;
11921;SDS011;6021;51.182;3.160;2023-02-22T04:18:38;59.00;;;35.37;;
11921;SDS011;6021;51.182;3.160;2023-02-22T04:21:07;59.50;;;35.50;;
11921;SDS011;6021;51.182;3.160;2023-02-22T04:23:35;58.57;;;34.60;;
11921;SDS011;6021;51.182;3.160;2023-02-22T04:26:03;54.70;;;33.03;;
11921;SDS011;6021;51.182;3.160;2023-02-22T04:28:32;59.07;;;35.17;;
11921;SDS011;6021;51.182;3.160;2023-02-22T04:31:00;58.70;;;34.03;;
11921;SDS011;6021;51.182;3.160;2023-02-22T04:33:29;55.80;;;33.40;;
11921;SDS011;6021;51.182;3.160;2023-02-22T04:35:57;57.87;;;32.60;;
11921;SDS011;6021;51.182;3.160;2023-02-22T04:38:27;63.40;;;36.43;;
11921;SDS011;6021;51.182;3.160;2023-02-22T04:40:55;56.27;;;34.07;;
11921;SDS011;6021;51.182;3.160;2023-02-22T04:43:24;54.97;;;33.30;;
11921;SDS011;6021;51.182;3.160;2023-02-22T04:45:52;58.73;;;33.00;;
11921;SDS011;6021;51.182;3.160;2023-02-22T04:48:20;53.53;;;31.93;;
11921;SDS011;6021;51.182;3.160;2023-02-22T04:50:49;52.77;;;30.73;;
11921;SDS011;6021;51.182;3.160;2023-02-22T04:53:18;54.47;;;32.03;;
11921;SDS011;6021;51.182;3.160;2023-02-22T04:55:46;55.93;;;31.77;;
11921;SDS011;6021;51.182;3.160;2023-02-22T04:58:14;58.40;;;33.00;;
11921;SDS011;6021;51.182;3.160;2023-02-22T05:00:43;66.17;;;36.80;;
11921;SDS011;6021;51.182;3.160;2023-02-22T05:03:11;63.07;;;34.47;;
11921;SDS011;6021;51.182;3.160;2023-02-22T05:05:39;62.67;;;34.40;;
11921;SDS011;6021;51.182;3.160;2023-02-22T05:08:08;63.10;;;33.90;;
11921;SDS011;6021;51.182;3.160;2023-02-22T05:10:36;63.90;;;34.23;;
11921;SDS011;6021;51.182;3.160;2023-02-22T05:13:04;64.57;;;34.07;;
11921;SDS011;6021;51.182;3.160;2023-02-22T05:15:33;68.03;;;37.00;;
11921;SDS011;6021;51.182;3.160;2023-02-22T05:18:01;77.17;;;36.40;;
11921;SDS011;6021;51.182;3.160;2023-02-22T05:20:33;78.17;;;38.57;;
11921;SDS011;6021;51.182;3.160;2023-02-22T05:23:02;73.53;;;39.00;;
11921;SDS011;6021;51.182;3.160;2023-02-22T05:25:31;73.90;;;38.00;;
11921;SDS011;6021;51.182;3.160;2023-02-22T05:28:01;73.73;;;37.83;;
11921;SDS011;6021;51.182;3.160;2023-02-22T05:30:32;54.53;;;33.63;;
11921;SDS011;6021;51.182;3.160;2023-02-22T05:33:02;63.70;;;34.87;;
11921;SDS011;6021;51.182;3.160;2023-02-22T05:35:30;55.70;;;33.23;;
11921;SDS011;6021;51.182;3.160;2023-02-22T05:37:59;59.47;;;33.83;;
11921;SDS011;6021;51.182;3.160;2023-02-22T05:40:29;59.10;;;34.40;;
11921;SDS011;6021;51.182;3.160;2023-02-22T05:42:58;62.90;;;37.17;;
11921;SDS011;6021;51.182;3.160;2023-02-22T05:45:28;58.83;;;35.87;;
11921;SDS011;6021;51.182;3.160;2023-02-22T05:47:56;54.30;;;33.67;;
11921;SDS011;6021;51.182;3.160;2023-02-22T05:50:25;60.57;;;35.67;;
11921;SDS011;6021;51.182;3.160;2023-02-22T05:52:53;47.60;;;31.80;;
11921;SDS011;6021;51.182;3.160;2023-02-22T05:55:22;54.53;;;35.40;;
11921;SDS011;6021;51.182;3.160;2023-02-22T05:57:51;52.67;;;33.13;;
11921;SDS011;6021;51.182;3.160;2023-02-22T06:00:25;49.23;;;32.23;;
11921;SDS011;6021;51.182;3.160;2023-02-22T06:05:25;51.83;;;32.57;;
11921;SDS011;6021;51.182;3.160;2023-02-22T06:07:54;48.17;;;31.73;;
11921;SDS011;6021;51.182;3.160;2023-02-22T06:10:24;48.53;;;31.30;;
11921;SDS011;6021;51.182;3.160;2023-02-22T06:12:53;46.63;;;30.60;;
11921;SDS011;6021;51.182;3.160;2023-02-22T06:15:22;43.53;;;30.10;;
11921;SDS011;6021;51.182;3.160;2023-02-22T06:17:52;41.27;;;29.30;;
11921;SDS011;6021;51.182;3.160;2023-02-22T06:20:22;37.43;;;27.93;;
11921;SDS011;6021;51.182;3.160;2023-02-22T06:22:52;39.27;;;27.03;;
11921;SDS011;6021;51.182;3.160;2023-02-22T06:25:22;37.70;;;27.17;;
11921;SDS011;6021;51.182;3.160;2023-02-22T06:27:52;38.93;;;27.60;;
11921;SDS011;6021;51.182;3.160;2023-02-22T06:30:21;38.33;;;27.17;;
11921;SDS011;6021;51.182;3.160;2023-02-22T06:32:51;41.37;;;28.57;;
11921;SDS011;6021;51.182;3.160;2023-02-22T06:35:19;42.70;;;29.90;;
11921;SDS011;6021;51.182;3.160;2023-02-22T06:37:48;44.93;;;30.90;;
11921;SDS011;6021;51.182;3.160;2023-02-22T06:40:16;43.00;;;29.70;;
11921;SDS011;6021;51.182;3.160;2023-02-22T06:42:46;42.77;;;30.23;;
11921;SDS011;6021;51.182;3.160;2023-02-22T06:45:15;45.40;;;31.73;;
11921;SDS011;6021;51.182;3.160;2023-02-22T06:47:44;47.77;;;32.87;;
11921;SDS011;6021;51.182;3.160;2023-02-22T06:50:22;48.80;;;32.20;;
11921;SDS011;6021;51.182;3.160;2023-02-22T06:52:52;47.73;;;31.93;;
11921;SDS011;6021;51.182;3.160;2023-02-22T06:55:23;42.87;;;30.33;;
11921;SDS011;6021;51.182;3.160;2023-02-22T06:57:52;39.77;;;28.30;;
11921;SDS011;6021;51.182;3.160;2023-02-22T07:00:22;40.10;;;29.00;;
11921;SDS011;6021;51.182;3.160;2023-02-22T07:02:52;37.17;;;28.47;;
11921;SDS011;6021;51.182;3.160;2023-02-22T07:05:21;34.73;;;27.10;;
11921;SDS011;6021;51.182;3.160;2023-02-22T07:07:50;31.83;;;25.37;;
11921;SDS011;6021;51.182;3.160;2023-02-22T07:10:24;34.00;;;25.37;;
11921;SDS011;6021;51.182;3.160;2023-02-22T07:13:03;28.17;;;23.17;;
11921;SDS011;6021;51.182;3.160;2023-02-22T07:15:35;29.10;;;23.43;;
11921;SDS011;6021;51.182;3.160;2023-02-22T07:18:00;30.50;;;23.93;;
11921;SDS011;6021;51.182;3.160;2023-02-22T07:20:29;28.43;;;23.50;;
11921;SDS011;6021;51.182;3.160;2023-02-22T07:23:00;28.10;;;22.83;;
11921;SDS011;6021;51.182;3.160;2023-02-22T07:25:29;26.37;;;21.67;;
11921;SDS011;6021;51.182;3.160;2023-02-22T07:27:58;27.50;;;22.60;;
11921;SDS011;6021;51.182;3.160;2023-02-22T07:30:31;27.57;;;23.60;;
11921;SDS011;6021;51.182;3.160;2023-02-22T07:33:00;26.17;;;22.13;;
11921;SDS011;6021;51.182;3.160;2023-02-22T07:35:34;26.57;;;21.80;;
11921;SDS011;6021;51.182;3.160;2023-02-22T07:38:04;28.30;;;22.77;;
11921;SDS011;6021;51.182;3.160;2023-02-22T07:40:37;27.90;;;23.37;;
11921;SDS011;6021;51.182;3.160;2023-02-22T07:43:13;27.73;;;22.80;;
11921;SDS011;6021;51.182;3.160;2023-02-22T07:45:49;27.27;;;22.77;;
11921;SDS011;6021;51.182;3.160;2023-02-22T07:48:22;26.93;;;22.87;;
11921;SDS011;6021;51.182;3.160;2023-02-22T07:50:52;28.47;;;23.63;;
11921;SDS011;6021;51.182;3.160;2023-02-22T07:53:22;28.17;;;23.83;;
11921;SDS011;6021;51.182;3.160;2023-02-22T07:55:58;27.90;;;23.30;;
11921;SDS011;6021;51.182;3.160;2023-02-22T07:58:28;28.63;;;23.17;;
11921;SDS011;6021;51.182;3.160;2023-02-22T08:00:58;27.70;;;23.67;;
11921;SDS011;6021;51.182;3.160;2023-02-22T08:03:31;29.17;;;23.90;;
11921;SDS011;6021;51.182;3.160;2023-02-22T08:06:04;26.83;;;23.93;;
11921;SDS011;6021;51.182;3.160;2023-02-22T08:08:34;29.57;;;23.63;;
11921;SDS011;6021;51.182;3.160;2023-02-22T08:11:02;29.50;;;24.27;;
11921;SDS011;6021;51.182;3.160;2023-02-22T08:13:32;29.90;;;25.17;;
11921;SDS011;6021;51.182;3.160;2023-02-22T08:16:02;28.77;;;23.67;;
11921;SDS011;6021;51.182;3.160;2023-02-22T08:18:31;29.60;;;24.77;;
11921;SDS011;6021;51.182;3.160;2023-02-22T08:21:00;29.67;;;25.30;;
11921;SDS011;6021;51.182;3.160;2023-02-22T08:23:28;29.70;;;25.10;;
11921;SDS011;6021;51.182;3.160;2023-02-22T08:26:08;29.53;;;24.40;;
11921;SDS011;6021;51.182;3.160;2023-02-22T08:28:34;29.27;;;24.77;;
11921;SDS011;6021;51.182;3.160;2023-02-22T08:31:02;27.87;;;24.77;;
11921;SDS011;6021;51.182;3.160;2023-02-22T08:33:32;29.10;;;24.47;;
11921;SDS011;6021;51.182;3.160;2023-02-22T08:36:01;28.40;;;25.33;;
11921;SDS011;6021;51.182;3.160;2023-02-22T08:38:29;30.20;;;24.63;;
11921;SDS011;6021;51.182;3.160;2023-02-22T08:40:59;28.50;;;25.40;;
11921;SDS011;6021;51.182;3.160;2023-02-22T08:43:28;31.20;;;27.33;;
11921;SDS011;6021;51.182;3.160;2023-02-22T08:45:56;31.00;;;25.27;;
11921;SDS011;6021;51.182;3.160;2023-02-22T08:48:24;29.97;;;25.53;;
11921;SDS011;6021;51.182;3.160;2023-02-22T08:50:53;29.00;;;20.77;;
11921;SDS011;6021;51.182;3.160;2023-02-22T08:53:21;28.73;;;23.07;;
11921;SDS011;6021;51.182;3.160;2023-02-22T08:55:50;28.73;;;25.60;;
11921;SDS011;6021;51.182;3.160;2023-02-22T08:58:19;25.77;;;20.53;;
11921;SDS011;6021;51.182;3.160;2023-02-22T09:00:48;28.17;;;25.10;;
11921;SDS011;6021;51.182;3.160;2023-02-22T09:03:16;27.80;;;24.90;;
11921;SDS011;6021;51.182;3.160;2023-02-22T09:05:45;26.13;;;23.33;;
11921;SDS011;6021;51.182;3.160;2023-02-22T09:08:14;28.20;;;25.17;;
11921;SDS011;6021;51.182;3.160;2023-02-22T09:10:43;30.30;;;27.00;;
11921;SDS011;6021;51.182;3.160;2023-02-22T09:13:11;30.13;;;26.63;;
11921;SDS011;6021;51.182;3.160;2023-02-22T09:15:40;30.47;;;26.83;;
11921;SDS011;6021;51.182;3.160;2023-02-22T09:18:09;30.60;;;27.27;;
11921;SDS011;6021;51.182;3.160;2023-02-22T09:20:40;30.43;;;27.30;;
11921;SDS011;6021;51.182;3.160;2023-02-22T09:23:08;29.90;;;26.80;;
11921;SDS011;6021;51.182;3.160;2023-02-22T09:25:37;31.37;;;28.17;;
11921;SDS011;6021;51.182;3.160;2023-02-22T09:28:06;29.80;;;26.70;;
11921;SDS011;6021;51.182;3.160;2023-02-22T09:30:35;30.93;;;27.73;;
11921;SDS011;6021;51.182;3.160;2023-02-22T09:33:05;25.97;;;22.17;;
11921;SDS011;6021;51.182;3.160;2023-02-22T09:35:38;30.23;;;27.13;;
11921;SDS011;6021;51.182;3.160;2023-02-22T09:38:08;31.93;;;28.63;;
11921;SDS011;6021;51.182;3.160;2023-02-22T09:40:42;30.57;;;27.57;;
11921;SDS011;6021;51.182;3.160;2023-02-22T09:46:02;31.97;;;28.73;;
11921;SDS011;6021;51.182;3.160;2023-02-22T09:48:50;32.40;;;29.00;;
11921;SDS011;6021;51.182;3.160;2023-02-22T09:52:10;32.90;;;29.27;;
11921;SDS011;6021;51.182;3.160;2023-02-22T09:54:01;31.50;;;28.37;;
11921;SDS011;6021;51.182;3.160;2023-02-22T09:56:32;32.13;;;28.73;;
11921;SDS011;6021;51.182;3.160;2023-02-22T09:59:04;32.57;;;23.37;;
11921;SDS011;6021;51.182;3.160;2023-02-22T10:01:42;30.60;;;23.00;;
11921;SDS011;6021;51.182;3.160;2023-02-22T10:07:14;31.60;;;28.30;;
11921;SDS011;6021;51.182;3.160;2023-02-22T10:09:51;33.43;;;29.87;;
11921;SDS011;6021;51.182;3.160;2023-02-22T10:15:32;30.87;;;27.87;;
11921;SDS011;6021;51.182;3.160;2023-02-22T10:20:54;34.17;;;30.50;;
11921;SDS011;6021;51.182;3.160;2023-02-22T10:26:16;31.83;;;25.67;;
11921;SDS011;6021;51.182;3.160;2023-02-22T10:28:53;31.77;;;25.10;;
11921;SDS011;6021;51.182;3.160;2023-02-22T10:31:30;34.70;;;26.30;;
11921;SDS011;6021;51.182;3.160;2023-02-22T10:34:02;34.20;;;28.27;;
11921;SDS011;6021;51.182;3.160;2023-02-22T10:36:35;36.20;;;27.23;;
11921;SDS011;6021;51.182;3.160;2023-02-22T10:39:11;33.47;;;26.77;;
11921;SDS011;6021;51.182;3.160;2023-02-22T10:41:37;35.57;;;27.23;;
11921;SDS011;6021;51.182;3.160;2023-02-22T10:44:07;36.60;;;27.93;;
11921;SDS011;6021;51.182;3.160;2023-02-22T10:46:36;32.73;;;26.90;;
11921;SDS011;6021;51.182;3.160;2023-02-22T10:49:07;36.83;;;27.57;;
11921;SDS011;6021;51.182;3.160;2023-02-22T10:51:38;37.00;;;27.90;;
11921;SDS011;6021;51.182;3.160;2023-02-22T10:54:17;36.57;;;28.40;;
11921;SDS011;6021;51.182;3.160;2023-02-22T10:56:46;38.07;;;27.97;;
11921;SDS011;6021;51.182;3.160;2023-02-22T10:59:33;34.80;;;27.30;;
11921;SDS011;6021;51.182;3.160;2023-02-22T11:02:15;33.07;;;26.93;;
11921;SDS011;6021;51.182;3.160;2023-02-22T11:07:29;36.73;;;28.07;;
11921;SDS011;6021;51.182;3.160;2023-02-22T11:10:04;36.63;;;27.67;;
11921;SDS011;6021;51.182;3.160;2023-02-22T11:12:50;39.73;;;28.43;;
11921;SDS011;6021;51.182;3.160;2023-02-22T11:15:26;46.13;;;31.40;;
11921;SDS011;6021;51.182;3.160;2023-02-22T11:17:57;44.43;;;32.47;;
11921;SDS011;6021;51.182;3.160;2023-02-22T11:20:28;44.63;;;32.37;;
11921;SDS011;6021;51.182;3.160;2023-02-22T11:23:03;48.37;;;33.83;;
11921;SDS011;6021;51.182;3.160;2023-02-22T11:25:36;57.40;;;35.77;;
11921;SDS011;6021;51.182;3.160;2023-02-22T11:28:11;55.27;;;34.87;;
11921;SDS011;6021;51.182;3.160;2023-02-22T11:30:47;61.23;;;45.87;;
11921;SDS011;6021;51.182;3.160;2023-02-22T11:33:21;59.90;;;45.40;;
11921;SDS011;6021;51.182;3.160;2023-02-22T11:36:04;66.60;;;46.77;;
11921;SDS011;6021;51.182;3.160;2023-02-22T11:38:32;65.23;;;37.60;;
11921;SDS011;6021;51.182;3.160;2023-02-22T11:41:16;74.17;;;49.60;;
11921;SDS011;6021;51.182;3.160;2023-02-22T11:43:48;78.57;;;49.10;;
11921;SDS011;6021;51.182;3.160;2023-02-22T11:46:18;76.03;;;51.27;;
11921;SDS011;6021;51.182;3.160;2023-02-22T11:54:39;81.97;;;52.30;;
11921;SDS011;6021;51.182;3.160;2023-02-22T11:57:18;78.37;;;39.90;;
11921;SDS011;6021;51.182;3.160;2023-02-22T12:05:40;84.17;;;53.13;;
11921;SDS011;6021;51.182;3.160;2023-02-22T12:11:50;69.77;;;39.23;;
11921;SDS011;6021;51.182;3.160;2023-02-22T12:14:25;76.30;;;53.17;;
11921;SDS011;6021;51.182;3.160;2023-02-22T12:20:02;74.67;;;52.57;;
11921;SDS011;6021;51.182;3.160;2023-02-22T12:22:33;65.80;;;38.93;;
11921;SDS011;6021;51.182;3.160;2023-02-22T12:25:20;66.63;;;40.10;;
11921;SDS011;6021;51.182;3.160;2023-02-22T12:27:56;70.63;;;49.50;;
11921;SDS011;6021;51.182;3.160;2023-02-22T12:30:28;81.87;;;54.80;;
11921;SDS011;6021;51.182;3.160;2023-02-22T12:33:02;82.40;;;56.43;;
11921;SDS011;6021;51.182;3.160;2023-02-22T12:35:39;77.40;;;43.87;;
11921;SDS011;6021;51.182;3.160;2023-02-22T12:38:17;74.53;;;42.80;;
11921;SDS011;6021;51.182;3.160;2023-02-22T12:41:06;88.30;;;62.50;;
11921;SDS011;6021;51.182;3.160;2023-02-22T12:43:54;78.30;;;45.73;;
11921;SDS011;6021;51.182;3.160;2023-02-22T12:46:36;85.07;;;58.53;;
11921;SDS011;6021;51.182;3.160;2023-02-22T12:52:31;92.07;;;62.83;;
11921;SDS011;6021;51.182;3.160;2023-02-22T12:57:46;94.17;;;62.93;;
11921;SDS011;6021;51.182;3.160;2023-02-22T13:00:44;84.90;;;47.53;;
11921;SDS011;6021;51.182;3.160;2023-02-22T13:03:35;105.43;;;69.17;;
11921;SDS011;6021;51.182;3.160;2023-02-22T13:11:25;102.63;;;53.37;;
11921;SDS011;6021;51.182;3.160;2023-02-22T13:14:02;94.73;;;50.83;;
11921;SDS011;6021;51.182;3.160;2023-02-22T13:16:45;81.63;;;45.43;;
11921;SDS011;6021;51.182;3.160;2023-02-22T13:22:15;79.17;;;46.00;;
11921;SDS011;6021;51.182;3.160;2023-02-22T13:27:51;73.97;;;42.47;;
11921;SDS011;6021;51.182;3.160;2023-02-22T13:30:37;78.10;;;43.00;;
11921;SDS011;6021;51.182;3.160;2023-02-22T13:38:59;86.40;;;51.73;;
11921;SDS011;6021;51.182;3.160;2023-02-22T13:41:52;83.47;;;45.80;;
11921;SDS011;6021;51.182;3.160;2023-02-22T13:52:31;77.87;;;44.67;;
11921;SDS011;6021;51.182;3.160;2023-02-22T13:55:05;76.57;;;44.40;;
11921;SDS011;6021;51.182;3.160;2023-02-22T13:57:37;70.03;;;42.27;;
11921;SDS011;6021;51.182;3.160;2023-02-22T14:11:06;57.77;;;37.30;;
11921;SDS011;6021;51.182;3.160;2023-02-22T14:16:26;55.43;;;36.13;;
11921;SDS011;6021;51.182;3.160;2023-02-22T14:21:56;48.40;;;30.97;;
11921;SDS011;6021;51.182;3.160;2023-02-22T14:24:39;42.60;;;28.90;;
11921;SDS011;6021;51.182;3.160;2023-02-22T14:27:05;37.67;;;26.20;;
11921;SDS011;6021;51.182;3.160;2023-02-22T14:29:32;36.07;;;24.63;;
11921;SDS011;6021;51.182;3.160;2023-02-22T14:32:05;37.33;;;25.80;;
11921;SDS011;6021;51.182;3.160;2023-02-22T14:34:42;35.70;;;23.50;;
11921;SDS011;6021;51.182;3.160;2023-02-22T14:37:18;33.83;;;23.27;;
11921;SDS011;6021;51.182;3.160;2023-02-22T14:39:57;35.40;;;22.63;;
11921;SDS011;6021;51.182;3.160;2023-02-22T14:42:35;32.67;;;22.20;;
11921;SDS011;6021;51.182;3.160;2023-02-22T14:56:18;35.67;;;20.77;;
11921;SDS011;6021;51.182;3.160;2023-02-22T14:58:51;31.07;;;20.60;;
11921;SDS011;6021;51.182;3.160;2023-02-22T15:01:26;32.43;;;20.67;;
11921;SDS011;6021;51.182;3.160;2023-02-22T15:06:50;37.03;;;21.57;;
11921;SDS011;6021;51.182;3.160;2023-02-22T15:09:28;34.70;;;21.13;;
11921;SDS011;6021;51.182;3.160;2023-02-22T15:14:34;31.77;;;19.20;;
11921;SDS011;6021;51.182;3.160;2023-02-22T15:17:40;35.97;;;20.40;;
11921;SDS011;6021;51.182;3.160;2023-02-22T15:19:43;36.00;;;21.57;;
11921;SDS011;6021;51.182;3.160;2023-02-22T15:22:24;40.70;;;23.23;;
11921;SDS011;6021;51.182;3.160;2023-02-22T15:24:59;40.70;;;23.17;;
11921;SDS011;6021;51.182;3.160;2023-02-22T15:27:30;33.57;;;20.67;;
11921;SDS011;6021;51.182;3.160;2023-02-22T15:30:08;39.07;;;22.80;;
11921;SDS011;6021;51.182;3.160;2023-02-22T15:32:44;40.93;;;24.47;;
11921;SDS011;6021;51.182;3.160;2023-02-22T15:40:39;39.40;;;24.80;;
11921;SDS011;6021;51.182;3.160;2023-02-22T15:43:19;39.67;;;24.53;;
11921;SDS011;6021;51.182;3.160;2023-02-22T15:45:43;38.33;;;24.37;;
11921;SDS011;6021;51.182;3.160;2023-02-22T15:48:12;35.03;;;23.00;;
11921;SDS011;6021;51.182;3.160;2023-02-22T15:50:58;42.57;;;24.40;;
11921;SDS011;6021;51.182;3.160;2023-02-22T15:53:42;38.13;;;23.77;;
11921;SDS011;6021;51.182;3.160;2023-02-22T15:56:16;43.57;;;24.37;;
11921;SDS011;6021;51.182;3.160;2023-02-22T15:58:46;40.67;;;23.53;;
11921;SDS011;6021;51.182;3.160;2023-02-22T16:01:41;40.50;;;22.70;;
11921;SDS011;6021;51.182;3.160;2023-02-22T16:04:14;41.50;;;25.10;;
11921;SDS011;6021;51.182;3.160;2023-02-22T16:06:44;46.37;;;24.83;;
11921;SDS011;6021;51.182;3.160;2023-02-22T16:09:14;41.40;;;23.50;;
11921;SDS011;6021;51.182;3.160;2023-02-22T16:11:49;33.13;;;19.77;;
11921;SDS011;6021;51.182;3.160;2023-02-22T16:14:29;28.67;;;18.47;;
11921;SDS011;6021;51.182;3.160;2023-02-22T16:17:22;23.83;;;14.83;;
11921;SDS011;6021;51.182;3.160;2023-02-22T16:19:51;26.60;;;15.37;;
11921;SDS011;6021;51.182;3.160;2023-02-22T16:22:34;23.17;;;15.17;;
11921;SDS011;6021;51.182;3.160;2023-02-22T16:27:59;20.93;;;13.33;;
11921;SDS011;6021;51.182;3.160;2023-02-22T16:30:32;19.23;;;12.93;;
11921;SDS011;6021;51.182;3.160;2023-02-22T16:33:04;18.30;;;12.47;;
11921;SDS011;6021;51.182;3.160;2023-02-22T16:35:37;21.53;;;13.20;;
11921;SDS011;6021;51.182;3.160;2023-02-22T16:38:07;18.83;;;12.37;;
11921;SDS011;6021;51.182;3.160;2023-02-22T16:40:40;18.50;;;12.40;;
11921;SDS011;6021;51.182;3.160;2023-02-22T16:43:18;19.50;;;11.77;;
11921;SDS011;6021;51.182;3.160;2023-02-22T16:45:43;17.53;;;11.77;;
11921;SDS011;6021;51.182;3.160;2023-02-22T16:48:18;20.63;;;12.80;;
11921;SDS011;6021;51.182;3.160;2023-02-22T16:51:01;21.17;;;12.70;;
11921;SDS011;6021;51.182;3.160;2023-02-22T16:53:32;22.53;;;13.63;;
11921;SDS011;6021;51.182;3.160;2023-02-22T16:56:02;24.50;;;14.27;;
11921;SDS011;6021;51.182;3.160;2023-02-22T16:58:32;22.37;;;12.90;;
11921;SDS011;6021;51.182;3.160;2023-02-22T17:01:03;26.03;;;13.67;;
11921;SDS011;6021;51.182;3.160;2023-02-22T17:03:31;19.53;;;12.27;;
11921;SDS011;6021;51.182;3.160;2023-02-22T17:06:00;24.73;;;13.73;;
11921;SDS011;6021;51.182;3.160;2023-02-22T17:08:28;22.73;;;13.63;;
11921;SDS011;6021;51.182;3.160;2023-02-22T17:10:58;25.03;;;13.87;;
11921;SDS011;6021;51.182;3.160;2023-02-22T17:13:27;24.73;;;14.03;;
11921;SDS011;6021;51.182;3.160;2023-02-22T17:15:56;24.40;;;13.40;;
11921;SDS011;6021;51.182;3.160;2023-02-22T17:18:25;23.57;;;13.87;;